sensor_id;sensor_type;location;lat;lon;timestamp;P1;durP1;ratioP1;P2;durP2;ratioP2
4389;SDS011;2209;48.982;8.406;2024-03-02T00:01:01;8.90;;;8.00;;
4389;SDS011;2209;48.982;8.406;2024-03-02T00:03:23;10.30;;;6.60;;
4389;SDS011;2209;48.982;8.406;2024-03-02T00:05:48;7.57;;;6.87;;
4389;SDS011;2209;48.982;8.406;2024-03-02T00:08:11;11.47;;;8.37;;
4389;SDS011;2209;48.982;8.406;2024-03-02T00:10:36;8.43;;;7.53;;
4389;SDS011;2209;48.982;8.406;2024-03-02T00:13:02;9.13;;;8.17;;
4389;SDS011;2209;48.982;8.406;2024-03-02T00:18:14;8.80;;;7.67;;
4389;SDS011;2209;48.982;8.406;2024-03-02T00:20:40;8.93;;;7.00;;
4389;SDS011;2209;48.982;8.406;2024-03-02T00:23:03;7.33;;;6.43;;
4389;SDS011;2209;48.982;8.406;2024-03-02T00:25:26;7.83;;;6.97;;
4389;SDS011;2209;48.982;8.406;2024-03-02T00:27:48;8.27;;;7.47;;
4389;SDS011;2209;48.982;8.406;2024-03-02T00:30:16;8.33;;;7.50;;
4389;SDS011;2209;48.982;8.406;2024-03-02T00:33:07;9.63;;;7.97;;
4389;SDS011;2209;48.982;8.406;2024-03-02T00:35:30;10.03;;;7.47;;
4389;SDS011;2209;48.982;8.406;2024-03-02T00:37:52;8.43;;;7.40;;
4389;SDS011;2209;48.982;8.406;2024-03-02T00:40:17;8.30;;;7.40;;
4389;SDS011;2209;48.982;8.406;2024-03-02T00:42:39;8.37;;;7.60;;
4389;SDS011;2209;48.982;8.406;2024-03-02T00:45:01;11.30;;;7.73;;
4389;SDS011;2209;48.982;8.406;2024-03-02T00:47:31;7.43;;;6.73;;
4389;SDS011;2209;48.982;8.406;2024-03-02T00:49:53;11.63;;;7.23;;
4389;SDS011;2209;48.982;8.406;2024-03-02T00:52:15;9.67;;;7.50;;
4389;SDS011;2209;48.982;8.406;2024-03-02T00:54:37;8.30;;;7.17;;
4389;SDS011;2209;48.982;8.406;2024-03-02T00:56:59;11.90;;;8.47;;
4389;SDS011;2209;48.982;8.406;2024-03-02T00:59:21;9.17;;;8.13;;
4389;SDS011;2209;48.982;8.406;2024-03-02T01:01:43;8.43;;;7.63;;
4389;SDS011;2209;48.982;8.406;2024-03-02T01:04:07;13.23;;;8.40;;
4389;SDS011;2209;48.982;8.406;2024-03-02T01:06:29;6.43;;;5.83;;
4389;SDS011;2209;48.982;8.406;2024-03-02T01:08:52;6.07;;;5.53;;
4389;SDS011;2209;48.982;8.406;2024-03-02T01:11:14;6.23;;;4.30;;
4389;SDS011;2209;48.982;8.406;2024-03-02T01:13:36;6.10;;;4.20;;
4389;SDS011;2209;48.982;8.406;2024-03-02T01:15:58;5.63;;;5.13;;
4389;SDS011;2209;48.982;8.406;2024-03-02T01:18:20;5.87;;;4.73;;
4389;SDS011;2209;48.982;8.406;2024-03-02T01:20:45;4.57;;;4.17;;
4389;SDS011;2209;48.982;8.406;2024-03-02T01:23:07;5.20;;;4.70;;
4389;SDS011;2209;48.982;8.406;2024-03-02T01:25:30;5.40;;;4.73;;
4389;SDS011;2209;48.982;8.406;2024-03-02T01:27:52;6.50;;;5.63;;
4389;SDS011;2209;48.982;8.406;2024-03-02T01:30:14;11.93;;;5.10;;
4389;SDS011;2209;48.982;8.406;2024-03-02T01:32:37;7.53;;;5.57;;
4389;SDS011;2209;48.982;8.406;2024-03-02T01:34:59;6.80;;;6.10;;
4389;SDS011;2209;48.982;8.406;2024-03-02T01:37:23;6.97;;;6.30;;
4389;SDS011;2209;48.982;8.406;2024-03-02T01:39:45;8.03;;;6.57;;
4389;SDS011;2209;48.982;8.406;2024-03-02T01:42:07;7.33;;;6.43;;
4389;SDS011;2209;48.982;8.406;2024-03-02T01:44:31;7.73;;;6.70;;
4389;SDS011;2209;48.982;8.406;2024-03-02T01:46:53;6.73;;;6.13;;
4389;SDS011;2209;48.982;8.406;2024-03-02T01:49:15;11.13;;;7.20;;
4389;SDS011;2209;48.982;8.406;2024-03-02T01:51:37;8.33;;;7.17;;
4389;SDS011;2209;48.982;8.406;2024-03-02T01:54:00;7.23;;;6.53;;
4389;SDS011;2209;48.982;8.406;2024-03-02T01:56:22;8.33;;;7.03;;
4389;SDS011;2209;48.982;8.406;2024-03-02T01:58:46;10.47;;;7.17;;
4389;SDS011;2209;48.982;8.406;2024-03-02T02:01:08;8.70;;;7.30;;
4389;SDS011;2209;48.982;8.406;2024-03-02T02:03:30;8.03;;;7.10;;
4389;SDS011;2209;48.982;8.406;2024-03-02T02:05:52;9.63;;;6.80;;
4389;SDS011;2209;48.982;8.406;2024-03-02T02:08:14;7.90;;;7.10;;
4389;SDS011;2209;48.982;8.406;2024-03-02T02:10:38;9.60;;;6.83;;
4389;SDS011;2209;48.982;8.406;2024-03-02T02:13:00;8.33;;;7.50;;
4389;SDS011;2209;48.982;8.406;2024-03-02T02:15:26;10.83;;;8.60;;
4389;SDS011;2209;48.982;8.406;2024-03-02T02:17:49;10.53;;;7.10;;
4389;SDS011;2209;48.982;8.406;2024-03-02T02:20:11;9.00;;;6.90;;
4389;SDS011;2209;48.982;8.406;2024-03-02T02:22:35;7.90;;;7.20;;
4389;SDS011;2209;48.982;8.406;2024-03-02T02:24:57;8.57;;;7.00;;
4389;SDS011;2209;48.982;8.406;2024-03-02T02:27:19;7.23;;;6.30;;
4389;SDS011;2209;48.982;8.406;2024-03-02T02:29:41;6.87;;;6.27;;
4389;SDS011;2209;48.982;8.406;2024-03-02T02:32:03;9.63;;;6.70;;
4389;SDS011;2209;48.982;8.406;2024-03-02T02:34:26;8.70;;;6.80;;
4389;SDS011;2209;48.982;8.406;2024-03-02T02:36:48;7.20;;;6.50;;
4389;SDS011;2209;48.982;8.406;2024-03-02T02:39:13;7.33;;;6.30;;
4389;SDS011;2209;48.982;8.406;2024-03-02T02:41:37;8.90;;;7.00;;
4389;SDS011;2209;48.982;8.406;2024-03-02T02:43:59;7.57;;;6.87;;
4389;SDS011;2209;48.982;8.406;2024-03-02T02:46:21;6.77;;;6.10;;
4389;SDS011;2209;48.982;8.406;2024-03-02T02:48:43;8.17;;;6.33;;
4389;SDS011;2209;48.982;8.406;2024-03-02T02:51:05;7.73;;;6.03;;
4389;SDS011;2209;48.982;8.406;2024-03-02T02:53:27;6.20;;;5.47;;
4389;SDS011;2209;48.982;8.406;2024-03-02T02:55:50;6.23;;;5.27;;
4389;SDS011;2209;48.982;8.406;2024-03-02T02:58:12;6.60;;;4.40;;
4389;SDS011;2209;48.982;8.406;2024-03-02T03:00:35;4.63;;;4.23;;
4389;SDS011;2209;48.982;8.406;2024-03-02T03:02:57;4.53;;;4.20;;
4389;SDS011;2209;48.982;8.406;2024-03-02T03:05:22;5.70;;;4.50;;
4389;SDS011;2209;48.982;8.406;2024-03-02T03:07:44;4.83;;;4.43;;
4389;SDS011;2209;48.982;8.406;2024-03-02T03:10:07;6.40;;;5.20;;
4389;SDS011;2209;48.982;8.406;2024-03-02T03:12:31;4.77;;;4.37;;
4389;SDS011;2209;48.982;8.406;2024-03-02T03:14:53;6.37;;;4.90;;
4389;SDS011;2209;48.982;8.406;2024-03-02T03:17:15;5.90;;;5.30;;
4389;SDS011;2209;48.982;8.406;2024-03-02T03:19:38;5.50;;;5.00;;
4389;SDS011;2209;48.982;8.406;2024-03-02T03:22:00;5.73;;;5.13;;
4389;SDS011;2209;48.982;8.406;2024-03-02T03:24:23;5.40;;;4.90;;
4389;SDS011;2209;48.982;8.406;2024-03-02T03:26:45;5.40;;;4.90;;
4389;SDS011;2209;48.982;8.406;2024-03-02T03:29:09;4.83;;;4.50;;
4389;SDS011;2209;48.982;8.406;2024-03-02T03:31:31;4.97;;;4.47;;
4389;SDS011;2209;48.982;8.406;2024-03-02T03:33:53;4.37;;;4.00;;
4389;SDS011;2209;48.982;8.406;2024-03-02T03:36:15;6.60;;;4.60;;
4389;SDS011;2209;48.982;8.406;2024-03-02T03:38:37;4.53;;;3.50;;
4389;SDS011;2209;48.982;8.406;2024-03-02T03:40:59;5.13;;;4.17;;
4389;SDS011;2209;48.982;8.406;2024-03-02T03:43:21;5.00;;;4.50;;
4389;SDS011;2209;48.982;8.406;2024-03-02T03:45:45;3.53;;;3.23;;
4389;SDS011;2209;48.982;8.406;2024-03-02T03:48:07;3.53;;;3.33;;
4389;SDS011;2209;48.982;8.406;2024-03-02T03:50:29;6.23;;;3.57;;
4389;SDS011;2209;48.982;8.406;2024-03-02T03:52:51;3.87;;;3.57;;
4389;SDS011;2209;48.982;8.406;2024-03-02T03:55:13;4.40;;;4.10;;
4389;SDS011;2209;48.982;8.406;2024-03-02T03:57:35;4.53;;;4.13;;
4389;SDS011;2209;48.982;8.406;2024-03-02T03:59:57;4.03;;;3.70;;
4389;SDS011;2209;48.982;8.406;2024-03-02T04:02:22;5.23;;;4.20;;
4389;SDS011;2209;48.982;8.406;2024-03-02T04:04:45;5.83;;;4.10;;
4389;SDS011;2209;48.982;8.406;2024-03-02T04:07:07;5.30;;;4.53;;
4389;SDS011;2209;48.982;8.406;2024-03-02T04:09:29;4.57;;;4.17;;
4389;SDS011;2209;48.982;8.406;2024-03-02T04:11:51;5.27;;;4.70;;
4389;SDS011;2209;48.982;8.406;2024-03-02T04:14:13;5.43;;;3.83;;
4389;SDS011;2209;48.982;8.406;2024-03-02T04:16:35;5.10;;;4.60;;
4389;SDS011;2209;48.982;8.406;2024-03-02T04:18:58;10.10;;;4.60;;
4389;SDS011;2209;48.982;8.406;2024-03-02T04:21:20;4.77;;;4.23;;
4389;SDS011;2209;48.982;8.406;2024-03-02T04:23:42;7.00;;;3.93;;
4389;SDS011;2209;48.982;8.406;2024-03-02T04:26:04;7.77;;;5.37;;
4389;SDS011;2209;48.982;8.406;2024-03-02T04:28:26;6.60;;;4.53;;
4389;SDS011;2209;48.982;8.406;2024-03-02T04:30:48;6.77;;;5.13;;
4389;SDS011;2209;48.982;8.406;2024-03-02T04:33:10;5.60;;;5.10;;
4389;SDS011;2209;48.982;8.406;2024-03-02T04:35:33;7.40;;;5.97;;
4389;SDS011;2209;48.982;8.406;2024-03-02T04:37:55;6.13;;;5.63;;
4389;SDS011;2209;48.982;8.406;2024-03-02T04:40:17;8.57;;;6.60;;
4389;SDS011;2209;48.982;8.406;2024-03-02T04:42:39;6.70;;;6.10;;
4389;SDS011;2209;48.982;8.406;2024-03-02T04:45:02;6.97;;;5.80;;
4389;SDS011;2209;48.982;8.406;2024-03-02T04:47:24;7.27;;;6.47;;
4389;SDS011;2209;48.982;8.406;2024-03-02T04:49:46;7.50;;;6.73;;
4389;SDS011;2209;48.982;8.406;2024-03-02T04:52:09;7.50;;;6.80;;
4389;SDS011;2209;48.982;8.406;2024-03-02T04:54:31;10.23;;;9.33;;
4389;SDS011;2209;48.982;8.406;2024-03-02T04:57:13;10.47;;;9.47;;
4389;SDS011;2209;48.982;8.406;2024-03-02T04:59:34;12.77;;;11.57;;
4389;SDS011;2209;48.982;8.406;2024-03-02T05:01:57;8.20;;;7.40;;
4389;SDS011;2209;48.982;8.406;2024-03-02T05:04:19;7.20;;;5.80;;
4389;SDS011;2209;48.982;8.406;2024-03-02T05:06:41;8.90;;;6.50;;
4389;SDS011;2209;48.982;8.406;2024-03-02T05:09:04;9.03;;;8.20;;
4389;SDS011;2209;48.982;8.406;2024-03-02T05:11:26;21.47;;;19.43;;
4389;SDS011;2209;48.982;8.406;2024-03-02T05:14:06;34.00;;;31.10;;
4389;SDS011;2209;48.982;8.406;2024-03-02T05:16:28;26.20;;;23.80;;
4389;SDS011;2209;48.982;8.406;2024-03-02T05:18:50;17.53;;;15.80;;
4389;SDS011;2209;48.982;8.406;2024-03-02T05:21:12;13.00;;;11.80;;
4389;SDS011;2209;48.982;8.406;2024-03-02T05:23:34;11.97;;;10.80;;
4389;SDS011;2209;48.982;8.406;2024-03-02T05:25:58;8.77;;;7.97;;
4389;SDS011;2209;48.982;8.406;2024-03-02T05:28:20;8.77;;;7.90;;
4389;SDS011;2209;48.982;8.406;2024-03-02T05:30:42;6.93;;;6.27;;
4389;SDS011;2209;48.982;8.406;2024-03-02T05:33:05;5.03;;;4.63;;
4389;SDS011;2209;48.982;8.406;2024-03-02T05:35:27;5.47;;;4.97;;
4389;SDS011;2209;48.982;8.406;2024-03-02T05:37:49;8.37;;;6.67;;
4389;SDS011;2209;48.982;8.406;2024-03-02T05:40:11;8.90;;;7.20;;
4389;SDS011;2209;48.982;8.406;2024-03-02T05:42:34;10.53;;;7.77;;
4389;SDS011;2209;48.982;8.406;2024-03-02T05:44:57;9.60;;;8.80;;
4389;SDS011;2209;48.982;8.406;2024-03-02T05:47:19;9.37;;;8.47;;
4389;SDS011;2209;48.982;8.406;2024-03-02T05:49:41;8.83;;;8.13;;
4389;SDS011;2209;48.982;8.406;2024-03-02T05:52:04;7.90;;;7.20;;
4389;SDS011;2209;48.982;8.406;2024-03-02T05:54:27;7.33;;;6.63;;
4389;SDS011;2209;48.982;8.406;2024-03-02T05:56:49;6.93;;;6.43;;
4389;SDS011;2209;48.982;8.406;2024-03-02T05:59:13;6.50;;;6.00;;
4389;SDS011;2209;48.982;8.406;2024-03-02T06:01:36;7.13;;;6.50;;
4389;SDS011;2209;48.982;8.406;2024-03-02T06:03:58;11.13;;;10.10;;
4389;SDS011;2209;48.982;8.406;2024-03-02T06:06:20;12.00;;;10.20;;
4389;SDS011;2209;48.982;8.406;2024-03-02T06:08:42;8.20;;;7.60;;
4389;SDS011;2209;48.982;8.406;2024-03-02T06:11:05;7.53;;;6.83;;
4389;SDS011;2209;48.982;8.406;2024-03-02T06:13:27;7.67;;;6.83;;
4389;SDS011;2209;48.982;8.406;2024-03-02T06:15:50;7.70;;;7.00;;
4389;SDS011;2209;48.982;8.406;2024-03-02T06:18:12;7.50;;;6.70;;
4389;SDS011;2209;48.982;8.406;2024-03-02T06:20:34;6.93;;;6.33;;
4389;SDS011;2209;48.982;8.406;2024-03-02T06:22:57;7.07;;;5.97;;
4389;SDS011;2209;48.982;8.406;2024-03-02T06:25:19;6.13;;;5.63;;
4389;SDS011;2209;48.982;8.406;2024-03-02T06:27:41;7.50;;;6.80;;
4389;SDS011;2209;48.982;8.406;2024-03-02T06:30:04;9.30;;;7.87;;
4389;SDS011;2209;48.982;8.406;2024-03-02T06:32:28;8.20;;;7.40;;
4389;SDS011;2209;48.982;8.406;2024-03-02T06:34:50;8.20;;;7.50;;
4389;SDS011;2209;48.982;8.406;2024-03-02T06:37:12;10.40;;;9.33;;
4389;SDS011;2209;48.982;8.406;2024-03-02T06:39:34;10.50;;;9.60;;
4389;SDS011;2209;48.982;8.406;2024-03-02T06:41:56;12.23;;;11.07;;
4389;SDS011;2209;48.982;8.406;2024-03-02T06:44:18;9.47;;;8.67;;
4389;SDS011;2209;48.982;8.406;2024-03-02T06:46:41;9.63;;;8.60;;
4389;SDS011;2209;48.982;8.406;2024-03-02T06:49:05;7.40;;;6.73;;
4389;SDS011;2209;48.982;8.406;2024-03-02T06:51:27;7.90;;;7.20;;
4389;SDS011;2209;48.982;8.406;2024-03-02T06:53:49;7.87;;;7.17;;
4389;SDS011;2209;48.982;8.406;2024-03-02T06:56:11;7.93;;;7.23;;
4389;SDS011;2209;48.982;8.406;2024-03-02T06:58:33;8.07;;;7.40;;
4389;SDS011;2209;48.982;8.406;2024-03-02T07:00:55;7.07;;;6.37;;
4389;SDS011;2209;48.982;8.406;2024-03-02T07:03:17;7.00;;;6.30;;
4389;SDS011;2209;48.982;8.406;2024-03-02T07:05:40;6.87;;;6.27;;
4389;SDS011;2209;48.982;8.406;2024-03-02T07:08:03;6.30;;;5.70;;
4389;SDS011;2209;48.982;8.406;2024-03-02T07:10:26;6.33;;;5.83;;
4389;SDS011;2209;48.982;8.406;2024-03-02T07:12:48;5.10;;;4.70;;
4389;SDS011;2209;48.982;8.406;2024-03-02T07:15:10;6.10;;;5.60;;
4389;SDS011;2209;48.982;8.406;2024-03-02T07:17:45;5.20;;;4.60;;
4389;SDS011;2209;48.982;8.406;2024-03-02T07:20:07;6.10;;;5.60;;
4389;SDS011;2209;48.982;8.406;2024-03-02T07:22:31;6.40;;;5.80;;
4389;SDS011;2209;48.982;8.406;2024-03-02T07:24:53;7.20;;;6.60;;
4389;SDS011;2209;48.982;8.406;2024-03-02T07:27:16;6.53;;;5.97;;
4389;SDS011;2209;48.982;8.406;2024-03-02T07:29:38;6.30;;;5.80;;
4389;SDS011;2209;48.982;8.406;2024-03-02T07:32:01;6.97;;;6.37;;
4389;SDS011;2209;48.982;8.406;2024-03-02T07:34:23;7.27;;;6.60;;
4389;SDS011;2209;48.982;8.406;2024-03-02T07:36:45;7.27;;;6.57;;
4389;SDS011;2209;48.982;8.406;2024-03-02T07:39:08;7.50;;;6.73;;
4389;SDS011;2209;48.982;8.406;2024-03-02T07:41:31;7.20;;;6.50;;
4389;SDS011;2209;48.982;8.406;2024-03-02T07:43:53;6.63;;;5.80;;
4389;SDS011;2209;48.982;8.406;2024-03-02T07:46:15;7.40;;;6.30;;
4389;SDS011;2209;48.982;8.406;2024-03-02T07:48:38;6.17;;;5.67;;
4389;SDS011;2209;48.982;8.406;2024-03-02T07:51:00;7.13;;;6.43;;
4389;SDS011;2209;48.982;8.406;2024-03-02T07:53:22;7.17;;;6.57;;
4389;SDS011;2209;48.982;8.406;2024-03-02T07:55:46;6.53;;;5.93;;
4389;SDS011;2209;48.982;8.406;2024-03-02T07:58:08;6.00;;;5.50;;
4389;SDS011;2209;48.982;8.406;2024-03-02T08:00:31;6.57;;;5.90;;
4389;SDS011;2209;48.982;8.406;2024-03-02T08:02:54;6.57;;;5.87;;
4389;SDS011;2209;48.982;8.406;2024-03-02T08:05:17;6.03;;;5.40;;
4389;SDS011;2209;48.982;8.406;2024-03-02T08:07:39;6.00;;;5.60;;
4389;SDS011;2209;48.982;8.406;2024-03-02T08:10:02;6.13;;;5.47;;
4389;SDS011;2209;48.982;8.406;2024-03-02T08:12:26;5.17;;;4.80;;
4389;SDS011;2209;48.982;8.406;2024-03-02T08:14:48;5.37;;;4.87;;
4389;SDS011;2209;48.982;8.406;2024-03-02T08:17:10;4.83;;;4.43;;
4389;SDS011;2209;48.982;8.406;2024-03-02T08:19:32;5.80;;;5.20;;
4389;SDS011;2209;48.982;8.406;2024-03-02T08:21:54;4.57;;;4.17;;
4389;SDS011;2209;48.982;8.406;2024-03-02T08:24:16;4.80;;;4.17;;
4389;SDS011;2209;48.982;8.406;2024-03-02T08:26:38;4.33;;;4.00;;
4389;SDS011;2209;48.982;8.406;2024-03-02T08:29:02;5.17;;;4.67;;
4389;SDS011;2209;48.982;8.406;2024-03-02T08:31:24;5.30;;;4.87;;
4389;SDS011;2209;48.982;8.406;2024-03-02T08:33:46;6.30;;;4.30;;
4389;SDS011;2209;48.982;8.406;2024-03-02T08:36:08;5.17;;;4.67;;
4389;SDS011;2209;48.982;8.406;2024-03-02T08:38:31;6.00;;;5.50;;
4389;SDS011;2209;48.982;8.406;2024-03-02T08:40:53;5.90;;;5.30;;
4389;SDS011;2209;48.982;8.406;2024-03-02T08:43:15;4.73;;;4.30;;
4389;SDS011;2209;48.982;8.406;2024-03-02T08:45:39;5.73;;;4.80;;
4389;SDS011;2209;48.982;8.406;2024-03-02T08:48:02;5.40;;;4.90;;
4389;SDS011;2209;48.982;8.406;2024-03-02T08:50:24;5.03;;;4.53;;
4389;SDS011;2209;48.982;8.406;2024-03-02T08:52:46;3.80;;;3.50;;
4389;SDS011;2209;48.982;8.406;2024-03-02T08:55:08;4.67;;;4.07;;
4389;SDS011;2209;48.982;8.406;2024-03-02T08:57:31;3.70;;;3.40;;
4389;SDS011;2209;48.982;8.406;2024-03-02T08:59:53;3.57;;;3.27;;
4389;SDS011;2209;48.982;8.406;2024-03-02T09:02:17;4.27;;;3.97;;
4389;SDS011;2209;48.982;8.406;2024-03-02T09:04:39;3.60;;;3.27;;
4389;SDS011;2209;48.982;8.406;2024-03-02T09:07:02;3.23;;;2.80;;
4389;SDS011;2209;48.982;8.406;2024-03-02T09:09:24;3.50;;;3.20;;
4389;SDS011;2209;48.982;8.406;2024-03-02T09:11:46;3.40;;;3.20;;
4389;SDS011;2209;48.982;8.406;2024-03-02T09:14:09;3.20;;;2.90;;
4389;SDS011;2209;48.982;8.406;2024-03-02T09:16:31;3.50;;;3.20;;
4389;SDS011;2209;48.982;8.406;2024-03-02T09:18:54;2.80;;;2.60;;
4389;SDS011;2209;48.982;8.406;2024-03-02T09:21:17;5.33;;;3.10;;
4389;SDS011;2209;48.982;8.406;2024-03-02T09:23:39;4.60;;;3.30;;
4389;SDS011;2209;48.982;8.406;2024-03-02T09:26:01;3.77;;;3.47;;
4389;SDS011;2209;48.982;8.406;2024-03-02T09:28:23;3.97;;;3.67;;
4389;SDS011;2209;48.982;8.406;2024-03-02T09:30:46;3.43;;;3.00;;
4389;SDS011;2209;48.982;8.406;2024-03-02T09:33:08;3.10;;;2.90;;
4389;SDS011;2209;48.982;8.406;2024-03-02T09:35:31;4.10;;;3.80;;
4389;SDS011;2209;48.982;8.406;2024-03-02T09:37:53;2.93;;;2.73;;
4389;SDS011;2209;48.982;8.406;2024-03-02T09:40:17;3.27;;;3.03;;
4389;SDS011;2209;48.982;8.406;2024-03-02T09:42:42;3.27;;;3.03;;
4389;SDS011;2209;48.982;8.406;2024-03-02T09:45:11;2.80;;;2.60;;
4389;SDS011;2209;48.982;8.406;2024-03-02T09:47:33;3.30;;;3.00;;
4389;SDS011;2209;48.982;8.406;2024-03-02T09:49:56;3.67;;;3.37;;
4389;SDS011;2209;48.982;8.406;2024-03-02T09:52:19;2.90;;;2.70;;
4389;SDS011;2209;48.982;8.406;2024-03-02T09:54:42;3.00;;;2.80;;
4389;SDS011;2209;48.982;8.406;2024-03-02T09:57:04;3.13;;;2.93;;
4389;SDS011;2209;48.982;8.406;2024-03-02T09:59:27;3.43;;;3.17;;
4389;SDS011;2209;48.982;8.406;2024-03-02T10:01:56;2.60;;;2.50;;
4389;SDS011;2209;48.982;8.406;2024-03-02T10:04:19;2.70;;;2.60;;
4389;SDS011;2209;48.982;8.406;2024-03-02T10:06:42;3.03;;;2.83;;
4389;SDS011;2209;48.982;8.406;2024-03-02T10:09:06;3.00;;;2.80;;
4389;SDS011;2209;48.982;8.406;2024-03-02T10:11:28;2.90;;;2.70;;
4389;SDS011;2209;48.982;8.406;2024-03-02T10:14:03;3.73;;;3.03;;
4389;SDS011;2209;48.982;8.406;2024-03-02T10:16:28;2.53;;;2.33;;
4389;SDS011;2209;48.982;8.406;2024-03-02T10:18:50;2.70;;;2.50;;
4389;SDS011;2209;48.982;8.406;2024-03-02T10:21:13;2.43;;;2.23;;
4389;SDS011;2209;48.982;8.406;2024-03-02T10:23:35;3.90;;;2.63;;
4389;SDS011;2209;48.982;8.406;2024-03-02T10:25:59;4.23;;;2.70;;
4389;SDS011;2209;48.982;8.406;2024-03-02T10:28:21;2.27;;;2.13;;
4389;SDS011;2209;48.982;8.406;2024-03-02T10:30:43;3.13;;;2.60;;
4389;SDS011;2209;48.982;8.406;2024-03-02T10:33:09;3.13;;;2.10;;
4389;SDS011;2209;48.982;8.406;2024-03-02T10:35:32;2.67;;;2.47;;
4389;SDS011;2209;48.982;8.406;2024-03-02T10:37:56;2.27;;;2.07;;
4389;SDS011;2209;48.982;8.406;2024-03-02T10:40:21;2.13;;;2.00;;
4389;SDS011;2209;48.982;8.406;2024-03-02T10:42:45;2.50;;;2.30;;
4389;SDS011;2209;48.982;8.406;2024-03-02T10:45:08;2.57;;;2.37;;
4389;SDS011;2209;48.982;8.406;2024-03-02T10:47:31;2.37;;;2.17;;
4389;SDS011;2209;48.982;8.406;2024-03-02T10:49:57;3.93;;;2.50;;
4389;SDS011;2209;48.982;8.406;2024-03-02T10:52:23;1.90;;;1.80;;
4389;SDS011;2209;48.982;8.406;2024-03-02T10:54:45;2.13;;;1.47;;
4389;SDS011;2209;48.982;8.406;2024-03-02T10:57:07;1.87;;;1.73;;
4389;SDS011;2209;48.982;8.406;2024-03-02T10:59:33;2.57;;;2.37;;
4389;SDS011;2209;48.982;8.406;2024-03-02T11:01:57;1.80;;;1.70;;
4389;SDS011;2209;48.982;8.406;2024-03-02T11:04:21;2.10;;;1.90;;
4389;SDS011;2209;48.982;8.406;2024-03-02T11:06:47;1.97;;;1.87;;
4389;SDS011;2209;48.982;8.406;2024-03-02T11:09:10;2.20;;;2.00;;
4389;SDS011;2209;48.982;8.406;2024-03-02T11:11:36;1.93;;;1.83;;
4389;SDS011;2209;48.982;8.406;2024-03-02T11:14:01;1.93;;;1.73;;
4389;SDS011;2209;48.982;8.406;2024-03-02T11:16:32;1.70;;;1.53;;
4389;SDS011;2209;48.982;8.406;2024-03-02T11:18:56;1.50;;;1.23;;
4389;SDS011;2209;48.982;8.406;2024-03-02T11:21:19;1.93;;;1.20;;
4389;SDS011;2209;48.982;8.406;2024-03-02T11:23:43;1.20;;;1.10;;
4389;SDS011;2209;48.982;8.406;2024-03-02T11:26:17;1.83;;;1.40;;
4389;SDS011;2209;48.982;8.406;2024-03-02T11:28:40;1.20;;;1.20;;
4389;SDS011;2209;48.982;8.406;2024-03-02T11:31:02;3.33;;;1.57;;
4389;SDS011;2209;48.982;8.406;2024-03-02T11:33:26;1.30;;;1.20;;
4389;SDS011;2209;48.982;8.406;2024-03-02T11:35:51;1.40;;;1.30;;
4389;SDS011;2209;48.982;8.406;2024-03-02T11:38:13;1.30;;;1.20;;
4389;SDS011;2209;48.982;8.406;2024-03-02T11:40:35;1.50;;;1.40;;
4389;SDS011;2209;48.982;8.406;2024-03-02T11:43:00;1.77;;;1.30;;
4389;SDS011;2209;48.982;8.406;2024-03-02T11:45:22;2.13;;;1.20;;
4389;SDS011;2209;48.982;8.406;2024-03-02T11:47:46;1.43;;;1.33;;
4389;SDS011;2209;48.982;8.406;2024-03-02T11:50:13;1.53;;;1.43;;
4389;SDS011;2209;48.982;8.406;2024-03-02T11:52:35;1.40;;;1.20;;
4389;SDS011;2209;48.982;8.406;2024-03-02T11:54:59;1.67;;;1.20;;
4389;SDS011;2209;48.982;8.406;2024-03-02T11:57:24;1.40;;;1.30;;
4389;SDS011;2209;48.982;8.406;2024-03-02T11:59:48;1.67;;;1.57;;
4389;SDS011;2209;48.982;8.406;2024-03-02T12:02:14;1.80;;;1.70;;
4389;SDS011;2209;48.982;8.406;2024-03-02T12:04:38;1.50;;;1.40;;
4389;SDS011;2209;48.982;8.406;2024-03-02T12:07:03;2.17;;;1.30;;
4389;SDS011;2209;48.982;8.406;2024-03-02T12:09:25;2.97;;;1.93;;
4389;SDS011;2209;48.982;8.406;2024-03-02T12:11:47;1.77;;;1.47;;
4389;SDS011;2209;48.982;8.406;2024-03-02T12:14:10;2.80;;;1.37;;
4389;SDS011;2209;48.982;8.406;2024-03-02T12:16:33;1.40;;;1.30;;
4389;SDS011;2209;48.982;8.406;2024-03-02T12:18:57;1.50;;;1.40;;
4389;SDS011;2209;48.982;8.406;2024-03-02T12:21:19;1.30;;;1.20;;
4389;SDS011;2209;48.982;8.406;2024-03-02T12:23:43;1.47;;;1.37;;
4389;SDS011;2209;48.982;8.406;2024-03-02T12:26:05;1.63;;;1.53;;
4389;SDS011;2209;48.982;8.406;2024-03-02T12:28:28;1.57;;;1.47;;
4389;SDS011;2209;48.982;8.406;2024-03-02T12:30:50;3.10;;;1.20;;
4389;SDS011;2209;48.982;8.406;2024-03-02T12:33:12;1.30;;;1.20;;
4389;SDS011;2209;48.982;8.406;2024-03-02T12:35:35;1.50;;;1.40;;
4389;SDS011;2209;48.982;8.406;2024-03-02T12:37:57;2.13;;;1.43;;
4389;SDS011;2209;48.982;8.406;2024-03-02T12:40:21;3.03;;;1.63;;
4389;SDS011;2209;48.982;8.406;2024-03-02T12:42:44;1.97;;;1.80;;
4389;SDS011;2209;48.982;8.406;2024-03-02T12:45:06;1.80;;;1.70;;
4389;SDS011;2209;48.982;8.406;2024-03-02T12:47:29;1.70;;;1.60;;
4389;SDS011;2209;48.982;8.406;2024-03-02T12:49:51;1.70;;;1.60;;
4389;SDS011;2209;48.982;8.406;2024-03-02T12:52:14;1.53;;;1.40;;
4389;SDS011;2209;48.982;8.406;2024-03-02T12:54:37;1.90;;;1.80;;
4389;SDS011;2209;48.982;8.406;2024-03-02T12:57:01;1.80;;;1.70;;
4389;SDS011;2209;48.982;8.406;2024-03-02T12:59:24;2.47;;;2.20;;
4389;SDS011;2209;48.982;8.406;2024-03-02T13:01:50;2.67;;;2.20;;
4389;SDS011;2209;48.982;8.406;2024-03-02T13:04:13;2.10;;;1.93;;
4389;SDS011;2209;48.982;8.406;2024-03-02T13:06:35;1.70;;;1.60;;
4389;SDS011;2209;48.982;8.406;2024-03-02T13:08:57;2.20;;;1.77;;
4389;SDS011;2209;48.982;8.406;2024-03-02T13:11:20;5.13;;;2.00;;
4389;SDS011;2209;48.982;8.406;2024-03-02T13:13:45;2.27;;;2.07;;
4389;SDS011;2209;48.982;8.406;2024-03-02T13:16:10;2.00;;;1.90;;
4389;SDS011;2209;48.982;8.406;2024-03-02T13:18:33;2.10;;;2.00;;
4389;SDS011;2209;48.982;8.406;2024-03-02T13:20:55;4.77;;;2.47;;
4389;SDS011;2209;48.982;8.406;2024-03-02T13:23:17;2.57;;;2.17;;
4389;SDS011;2209;48.982;8.406;2024-03-02T13:25:40;2.87;;;2.33;;
4389;SDS011;2209;48.982;8.406;2024-03-02T13:28:03;2.17;;;2.07;;
4389;SDS011;2209;48.982;8.406;2024-03-02T13:30:28;5.67;;;2.50;;
4389;SDS011;2209;48.982;8.406;2024-03-02T13:32:50;2.23;;;2.10;;
4389;SDS011;2209;48.982;8.406;2024-03-02T13:35:13;1.90;;;1.80;;
4389;SDS011;2209;48.982;8.406;2024-03-02T13:37:35;2.17;;;2.07;;
4389;SDS011;2209;48.982;8.406;2024-03-02T13:39:58;3.00;;;2.37;;
4389;SDS011;2209;48.982;8.406;2024-03-02T13:42:20;1.90;;;1.80;;
4389;SDS011;2209;48.982;8.406;2024-03-02T13:44:43;2.73;;;2.10;;
4389;SDS011;2209;48.982;8.406;2024-03-02T13:47:07;1.97;;;1.87;;
4389;SDS011;2209;48.982;8.406;2024-03-02T13:49:29;3.10;;;2.10;;
4389;SDS011;2209;48.982;8.406;2024-03-02T13:51:56;2.63;;;2.43;;
4389;SDS011;2209;48.982;8.406;2024-03-02T13:54:20;3.20;;;1.97;;
4389;SDS011;2209;48.982;8.406;2024-03-02T13:56:42;1.60;;;1.50;;
4389;SDS011;2209;48.982;8.406;2024-03-02T13:59:05;1.93;;;1.60;;
4389;SDS011;2209;48.982;8.406;2024-03-02T14:01:27;1.83;;;1.73;;
4389;SDS011;2209;48.982;8.406;2024-03-02T14:03:50;1.60;;;1.50;;
4389;SDS011;2209;48.982;8.406;2024-03-02T14:06:15;1.80;;;1.70;;
4389;SDS011;2209;48.982;8.406;2024-03-02T14:08:37;1.43;;;1.33;;
4389;SDS011;2209;48.982;8.406;2024-03-02T14:10:59;1.90;;;1.80;;
4389;SDS011;2209;48.982;8.406;2024-03-02T14:13:22;1.80;;;1.70;;
4389;SDS011;2209;48.982;8.406;2024-03-02T14:15:46;1.97;;;1.87;;
4389;SDS011;2209;48.982;8.406;2024-03-02T14:18:09;1.87;;;1.77;;
4389;SDS011;2209;48.982;8.406;2024-03-02T14:20:32;2.20;;;1.70;;
4389;SDS011;2209;48.982;8.406;2024-03-02T14:22:54;4.47;;;2.10;;
4389;SDS011;2209;48.982;8.406;2024-03-02T14:25:17;1.53;;;1.43;;
4389;SDS011;2209;48.982;8.406;2024-03-02T14:27:39;1.63;;;1.53;;
4389;SDS011;2209;48.982;8.406;2024-03-02T14:30:01;1.60;;;1.50;;
4389;SDS011;2209;48.982;8.406;2024-03-02T14:32:25;1.80;;;1.70;;
4389;SDS011;2209;48.982;8.406;2024-03-02T14:34:47;2.17;;;1.97;;
4389;SDS011;2209;48.982;8.406;2024-03-02T14:37:11;1.93;;;1.83;;
4389;SDS011;2209;48.982;8.406;2024-03-02T14:39:33;2.93;;;2.40;;
4389;SDS011;2209;48.982;8.406;2024-03-02T14:41:56;1.80;;;1.70;;
4389;SDS011;2209;48.982;8.406;2024-03-02T14:44:18;2.40;;;1.90;;
4389;SDS011;2209;48.982;8.406;2024-03-02T14:46:40;1.63;;;1.53;;
4389;SDS011;2209;48.982;8.406;2024-03-02T14:49:03;2.00;;;1.80;;
4389;SDS011;2209;48.982;8.406;2024-03-02T14:51:26;1.73;;;1.63;;